100LL.CA
Aviation Fuel Pricing for Canadians
Please upgrade your browser - Tested with IE9, FireFox, Chrome, Safari

Fuel Airports Other Help
Prices Economy Info List METAR/TAF Kneeboard Help

Reference Airport: CALGARY/SPRINGBANK, AB
N 51 06 19  W 114 22 17
Provinces to show:

CYBW CALGARY/SPRINGBANK, AB
WEATHER
METARCYBW 230400Z AUTO 32009KT 9SM CLR 01/M06 A2998 RMK SLP205
TAFTAF CYBW 222340Z 2300/2305 28014KT P6SM SKC RMK FCST BASED ON AUTO OBS. NXT FCST BY 231300Z
OTHER SITES

FlightAware

FltPlan

Google Maps

SkyVector
FUEL
FBO 100LL
member
100LL
public
JETA MOGAS
Springbank Aero Services (2023-11-22)2.8452.050
  Note: http://springbank.aero/
Territorial Fuel Sales (2023-08-09)2.6802.200
  Note: Self-serve tanks at end of TWY E (formerly Central Aviation)
Calgary Flying Club (2023-08-29)2.2002.450
  Note: Discounts for CFC members
Canada Flight Supplement - CYBW
(opens in new tab/window)


Please Send Updates!

Desktop Version ]  [ Mobile Version ]  [ Disclaimer ]